createdAt,value
2018-06-05T00:01:58.483Z,8.07
2018-06-05T00:04:27.180Z,7.57
2018-06-05T00:06:56.047Z,7.90
2018-06-05T00:09:24.638Z,7.30
2018-06-05T00:11:53.270Z,7.93
2018-06-05T00:14:21.832Z,7.80
2018-06-05T00:16:50.548Z,7.40
2018-06-05T00:19:19.305Z,8.33
2018-06-05T00:21:47.838Z,7.70
2018-06-05T00:24:16.538Z,7.57
2018-06-05T00:26:45.917Z,8.20
2018-06-05T00:29:14.464Z,7.73
2018-06-05T00:31:43.322Z,7.70
2018-06-05T00:34:12.108Z,7.67
2018-06-05T00:36:40.671Z,7.58
2018-06-05T00:39:09.267Z,8.50
2018-06-05T00:41:37.885Z,7.40
2018-06-05T00:44:06.604Z,7.90
2018-06-05T00:46:35.182Z,7.53
2018-06-05T00:49:03.942Z,7.25
2018-06-05T00:51:43.573Z,6.95
2018-06-05T00:54:13.311Z,7.40
2018-06-05T00:56:42.527Z,8.00
2018-06-05T00:59:11.728Z,7.80
2018-06-05T01:01:40.566Z,8.10
2018-06-05T01:04:09.338Z,7.57
2018-06-05T01:06:38.263Z,6.93
2018-06-05T01:09:08.478Z,7.67
2018-06-05T01:11:37.789Z,8.17
2018-06-05T01:14:06.628Z,7.47
2018-06-05T01:16:35.326Z,7.37
2018-06-05T01:19:03.992Z,7.80
2018-06-05T01:21:32.650Z,7.87
2018-06-05T01:24:02.144Z,8.77
2018-06-05T01:26:31.063Z,7.60
2018-06-05T01:29:00.442Z,7.67
2018-06-05T01:31:29.032Z,7.97
2018-06-05T01:33:57.758Z,8.40
2018-06-05T01:36:26.325Z,7.33
2018-06-05T01:38:55.336Z,8.10
2018-06-05T01:41:23.957Z,7.97
2018-06-05T01:43:52.659Z,8.90
2018-06-05T01:46:21.552Z,8.20
2018-06-05T01:48:50.085Z,8.90
2018-06-05T01:51:19.582Z,7.20
2018-06-05T01:53:48.253Z,8.00
2018-06-05T01:56:16.918Z,8.90
2018-06-05T01:58:45.640Z,7.33
2018-06-05T02:01:14.399Z,7.90
2018-06-05T02:03:43.541Z,8.13
2018-06-05T02:06:12.219Z,8.87
2018-06-05T02:08:41.033Z,8.43
2018-06-05T02:11:09.635Z,8.30
2018-06-05T02:13:39.658Z,7.70
2018-06-05T02:16:11.459Z,8.57
2018-06-05T02:18:42.045Z,7.70
2018-06-05T02:21:11.747Z,8.17
2018-06-05T02:23:42.997Z,8.70
2018-06-05T02:26:12.385Z,7.93
2018-06-05T02:28:41.203Z,7.60
2018-06-05T02:31:09.824Z,8.23
2018-06-05T02:33:38.421Z,7.87
2018-06-05T02:36:07.050Z,7.97
2018-06-05T02:38:35.724Z,8.17
2018-06-05T02:41:04.353Z,9.03
2018-06-05T02:43:33.059Z,7.50
2018-06-05T02:46:01.974Z,9.60
2018-06-05T02:48:30.530Z,9.37
2018-06-05T02:50:59.143Z,8.90
2018-06-05T02:53:27.773Z,8.50
2018-06-05T02:55:56.459Z,8.70
2018-06-05T02:58:24.980Z,7.40
2018-06-05T03:00:53.678Z,8.15
2018-06-05T03:03:22.428Z,8.43
2018-06-05T03:05:51.390Z,9.00
2018-06-05T03:08:20.025Z,8.48
2018-06-05T03:10:48.679Z,8.05
2018-06-05T03:13:17.576Z,8.80
2018-06-05T03:15:47.036Z,9.40
2018-06-05T03:18:15.694Z,8.70
2018-06-05T03:20:44.520Z,8.07
2018-06-05T03:23:13.154Z,7.00
2018-06-05T03:25:42.010Z,7.83
2018-06-05T03:28:10.651Z,8.37
2018-06-05T03:30:39.529Z,7.33
2018-06-05T03:33:08.044Z,9.07
2018-06-05T03:35:36.648Z,9.70
2018-06-05T03:38:05.363Z,8.10
2018-06-05T03:40:34.574Z,9.50
2018-06-05T03:43:03.876Z,8.00
2018-06-05T03:45:32.569Z,7.10
2018-06-05T03:48:01.168Z,8.37
2018-06-05T03:50:29.765Z,8.00
2018-06-05T03:52:58.489Z,9.28
2018-06-05T03:55:27.766Z,9.20
2018-06-05T03:57:56.400Z,8.23
2018-06-05T04:00:25.002Z,9.23
2018-06-05T04:02:53.499Z,8.20
2018-06-05T04:05:22.419Z,8.07
2018-06-05T04:07:51.694Z,8.10
2018-06-05T04:10:20.410Z,7.80
2018-06-05T04:12:49.078Z,8.63
2018-06-05T04:15:17.669Z,8.70
2018-06-05T04:17:46.230Z,7.60
2018-06-05T04:20:14.863Z,8.80
2018-06-05T04:22:43.488Z,7.70
2018-06-05T04:25:12.621Z,7.65
2018-06-05T04:27:41.216Z,8.40
2018-06-05T04:30:10.054Z,8.90
2018-06-05T04:32:38.906Z,9.17
2018-06-05T04:35:08.571Z,9.57
2018-06-05T04:37:37.220Z,8.53
2018-06-05T04:40:05.850Z,8.93
2018-06-05T04:42:34.411Z,6.83
2018-06-05T04:45:03.081Z,7.90
2018-06-05T04:47:31.951Z,8.30
2018-06-05T04:50:00.616Z,8.80
2018-06-05T04:52:29.271Z,8.40
2018-06-05T04:54:57.819Z,8.27
2018-06-05T04:57:26.649Z,8.80
2018-06-05T04:59:55.974Z,9.33
2018-06-05T05:02:24.693Z,9.60
2018-06-05T05:04:53.305Z,8.90
2018-06-05T05:07:21.870Z,9.20
2018-06-05T05:09:51.556Z,7.70
2018-06-05T05:12:20.100Z,8.33
2018-06-05T05:14:48.791Z,8.20
2018-06-05T05:17:17.634Z,7.83
2018-06-05T05:19:46.084Z,8.50
2018-06-05T05:22:14.939Z,7.90
2018-06-05T05:24:44.350Z,7.60
2018-06-05T05:27:13.014Z,7.70
2018-06-05T05:29:42.618Z,7.63
2018-06-05T05:32:11.451Z,8.17
2018-06-05T05:34:38.931Z,7.90
2018-06-05T05:37:07.454Z,7.80
2018-06-05T05:39:36.091Z,7.33
2018-06-05T05:42:04.821Z,7.90
2018-06-05T05:44:33.567Z,7.55
2018-06-05T05:47:02.295Z,7.40
2018-06-05T05:49:30.974Z,7.23
2018-06-05T05:51:59.788Z,7.20
2018-06-05T05:54:28.445Z,7.77
2018-06-05T05:56:57.255Z,7.47
2018-06-05T05:59:25.862Z,7.40
2018-06-05T06:01:54.660Z,7.20
2018-06-05T06:04:23.625Z,6.60
2018-06-05T06:06:52.412Z,7.20
2018-06-05T06:09:21.354Z,6.90
2018-06-05T06:11:50.736Z,7.40
2018-06-05T06:14:19.824Z,6.77
2018-06-05T06:16:48.430Z,6.90
2018-06-05T06:19:17.290Z,7.63
2018-06-05T06:21:45.964Z,8.27
2018-06-05T06:24:14.820Z,8.00
2018-06-05T06:26:43.681Z,8.70
2018-06-05T06:29:12.317Z,7.87
2018-06-05T06:31:40.908Z,8.50
2018-06-05T06:34:09.490Z,8.90
2018-06-05T06:36:38.252Z,7.53
2018-06-05T06:39:10.246Z,7.67
2018-06-05T06:41:39.310Z,7.00
2018-06-05T06:44:07.998Z,7.40
2018-06-05T06:46:36.796Z,6.33
2018-06-05T06:49:06.130Z,7.07
2018-06-05T06:51:34.776Z,8.03
2018-06-05T06:56:31.901Z,6.70
2018-06-05T06:59:00.582Z,6.73
2018-06-05T07:01:29.347Z,7.10
2018-06-05T07:03:58.037Z,6.23
2018-06-05T07:08:54.890Z,7.85
2018-06-05T07:11:23.778Z,6.90
2018-06-05T07:21:16.022Z,6.40
2018-06-05T07:23:44.646Z,7.23
2018-06-05T07:26:13.537Z,6.80
2018-06-05T07:28:42.800Z,7.13
2018-06-05T07:31:11.812Z,7.10
2018-06-05T07:33:40.507Z,6.73
2018-06-05T07:36:09.250Z,6.95
2018-06-05T07:38:37.976Z,7.30
2018-06-05T07:41:07.103Z,6.67
2018-06-05T07:43:35.839Z,7.43
2018-06-05T07:46:05.148Z,7.90
2018-06-05T07:48:34.848Z,6.63
2018-06-05T07:51:03.557Z,6.60
2018-06-05T07:53:32.276Z,6.57
2018-06-05T07:56:01.223Z,5.83
2018-06-05T07:58:29.757Z,5.27
2018-06-05T08:00:58.753Z,4.60
2018-06-05T08:03:27.527Z,4.30
2018-06-05T08:05:56.071Z,4.22
2018-06-05T08:08:24.668Z,3.98
2018-06-05T08:10:53.618Z,4.28
2018-06-05T08:13:22.326Z,4.70
2018-06-05T08:15:51.357Z,4.43
2018-06-05T08:18:20.019Z,5.20
2018-06-05T08:20:48.717Z,4.57
2018-06-05T08:23:17.514Z,4.15
2018-06-05T08:25:46.801Z,4.60
2018-06-05T08:28:15.399Z,4.15
2018-06-05T08:30:44.236Z,4.70
2018-06-05T08:33:13.692Z,4.83
2018-06-05T08:35:42.351Z,3.98
2018-06-05T08:38:10.936Z,4.10
2018-06-05T08:40:39.708Z,3.37
2018-06-05T08:43:08.400Z,3.90
2018-06-05T08:45:37.076Z,3.77
2018-06-05T08:48:05.897Z,3.80
2018-06-05T08:50:34.598Z,3.35
2018-06-05T08:53:03.433Z,2.87
2018-06-05T08:55:31.938Z,3.40
2018-06-05T08:58:00.448Z,3.47
2018-06-05T09:00:29.302Z,3.33
2018-06-05T09:02:57.913Z,3.42
2018-06-05T09:05:26.920Z,2.77
2018-06-05T09:07:55.771Z,2.87
2018-06-05T09:10:24.497Z,3.02
2018-06-05T09:12:53.271Z,2.80
2018-06-05T09:15:21.869Z,2.20
2018-06-05T09:17:51.201Z,2.70
2018-06-05T09:20:19.878Z,2.22
2018-06-05T09:22:48.617Z,2.20
2018-06-05T09:25:17.989Z,2.40
2018-06-05T09:27:46.919Z,2.70
2018-06-05T09:30:15.749Z,2.60
2018-06-05T09:32:44.516Z,2.27
2018-06-05T09:35:13.248Z,2.22
2018-06-05T09:37:42.652Z,2.30
2018-06-05T09:40:11.344Z,2.10
2018-06-05T09:42:40.323Z,1.77
2018-06-05T09:45:09.527Z,1.90
2018-06-05T09:47:38.882Z,2.00
2018-06-05T09:50:07.594Z,1.80
2018-06-05T09:52:36.207Z,1.67
2018-06-05T09:55:05.489Z,1.60
2018-06-05T09:57:34.103Z,1.70
2018-06-05T10:00:02.896Z,1.50
2018-06-05T10:02:31.643Z,1.50
2018-06-05T10:05:00.277Z,1.60
2018-06-05T10:07:29.650Z,1.40
2018-06-05T10:09:58.273Z,1.37
2018-06-05T10:12:27.092Z,1.30
2018-06-05T10:14:55.611Z,1.62
2018-06-05T10:17:24.627Z,1.35
2018-06-05T10:19:53.454Z,1.00
2018-06-05T10:22:22.251Z,1.67
2018-06-05T10:24:51.174Z,1.10
2018-06-05T10:27:20.167Z,1.00
2018-06-05T10:29:49.851Z,1.07
2018-06-05T10:32:18.614Z,1.05
2018-06-05T10:34:47.279Z,1.10
2018-06-05T10:37:15.904Z,1.15
2018-06-05T10:39:44.669Z,1.20
2018-06-05T10:42:13.978Z,0.95
2018-06-05T10:44:42.607Z,1.40
2018-06-05T10:47:11.326Z,1.12
2018-06-05T10:49:40.173Z,1.20
2018-06-05T10:52:09.923Z,1.60
2018-06-05T10:54:38.956Z,2.17
2018-06-05T10:57:07.583Z,1.97
2018-06-05T10:59:36.328Z,2.22
2018-06-05T11:02:05.327Z,2.55
2018-06-05T11:04:33.994Z,3.40
2018-06-05T11:07:03.012Z,3.40
2018-06-05T11:09:31.917Z,3.10
2018-06-05T11:12:00.777Z,3.27
2018-06-05T11:14:29.466Z,2.45
2018-06-05T11:16:58.181Z,2.40
2018-06-05T11:19:27.134Z,3.47
2018-06-05T11:21:56.432Z,3.63
2018-06-05T11:24:25.200Z,3.40
2018-06-05T11:26:54.035Z,3.70
2018-06-05T11:29:22.829Z,3.43
2018-06-05T11:31:51.699Z,3.30
2018-06-05T11:34:20.839Z,3.37
2018-06-05T11:36:50.086Z,3.67
2018-06-05T11:39:18.870Z,3.33
2018-06-05T11:41:47.487Z,3.47
2018-06-05T11:44:16.241Z,3.53
2018-06-05T11:46:44.975Z,3.50
2018-06-05T11:49:13.644Z,2.87
2018-06-05T11:51:43.498Z,2.90
2018-06-05T11:54:12.485Z,2.60
2018-06-05T11:56:41.003Z,3.00
2018-06-05T11:59:09.838Z,3.20
2018-06-05T12:01:38.392Z,3.20
2018-06-05T12:04:07.024Z,3.10
2018-06-05T12:06:35.727Z,3.13
2018-06-05T12:09:07.034Z,3.50
2018-06-05T12:11:35.594Z,3.00
2018-06-05T12:14:04.266Z,3.30
2018-06-05T12:16:33.590Z,3.47
2018-06-05T12:19:02.424Z,4.03
2018-06-05T12:21:31.068Z,4.40
2018-06-05T12:23:59.708Z,4.53
2018-06-05T12:26:28.488Z,3.90
2018-06-05T12:28:57.062Z,4.10
2018-06-05T12:31:26.843Z,3.60
2018-06-05T12:33:55.358Z,4.10
2018-06-05T12:36:23.967Z,3.50
2018-06-05T12:38:52.612Z,4.23
2018-06-05T12:41:21.483Z,4.00
2018-06-05T12:43:50.324Z,4.40
2018-06-05T12:46:19.234Z,4.90
2018-06-05T12:48:48.127Z,4.40
2018-06-05T12:51:16.837Z,4.97
2018-06-05T12:53:45.587Z,5.60
2018-06-05T12:56:14.333Z,5.37
2018-06-05T12:58:43.161Z,5.33
2018-06-05T13:01:11.787Z,4.63
2018-06-05T13:03:40.944Z,4.77
2018-06-05T13:06:09.637Z,5.10
2018-06-05T13:08:38.358Z,4.97
2018-06-05T13:11:07.018Z,4.37
2018-06-05T13:13:35.846Z,5.23
2018-06-05T13:16:05.147Z,5.20
2018-06-05T13:18:33.903Z,5.10
2018-06-05T13:21:02.566Z,4.87
2018-06-05T13:23:31.084Z,4.60
2018-06-05T13:26:01.121Z,5.53
2018-06-05T13:28:29.835Z,5.30
2018-06-05T13:30:58.565Z,5.30
2018-06-05T13:33:27.202Z,6.43
2018-06-05T13:35:55.890Z,5.50
2018-06-05T13:38:25.397Z,5.40
2018-06-05T13:40:53.973Z,5.65
2018-06-05T13:43:23.472Z,4.77
2018-06-05T13:45:52.083Z,5.33
2018-06-05T13:48:21.092Z,5.73
2018-06-05T13:50:49.792Z,5.90
2018-06-05T13:53:18.443Z,4.90
2018-06-05T13:55:47.281Z,5.53
2018-06-05T13:58:16.029Z,5.13
2018-06-05T14:00:45.324Z,5.10
2018-06-05T14:03:13.857Z,6.00
2018-06-05T14:05:42.584Z,5.17
2018-06-05T14:08:11.514Z,4.70
2018-06-05T14:10:40.430Z,5.03
2018-06-05T14:13:09.040Z,5.23
2018-06-05T14:15:37.720Z,4.90
2018-06-05T14:18:06.734Z,4.78
2018-06-05T14:20:35.983Z,4.80
2018-06-05T14:23:05.059Z,5.73
2018-06-05T14:25:33.855Z,5.23
2018-06-05T14:28:02.665Z,4.30
2018-06-05T14:30:31.582Z,5.17
2018-06-05T14:33:00.483Z,4.80
2018-06-05T14:35:29.232Z,5.20
2018-06-05T14:37:57.837Z,5.10
2018-06-05T14:40:26.794Z,5.27
2018-06-05T14:42:55.635Z,4.70
2018-06-05T14:45:24.449Z,5.23
2018-06-05T14:47:53.070Z,5.67
2018-06-05T14:50:21.841Z,5.50
2018-06-05T14:52:50.760Z,5.40
2018-06-05T14:55:19.520Z,4.87
2018-06-05T14:57:48.040Z,5.57
2018-06-05T15:00:16.736Z,5.77
2018-06-05T15:02:45.491Z,6.47
2018-06-05T15:05:14.400Z,5.00
2018-06-05T15:07:43.373Z,5.00
2018-06-05T15:10:12.301Z,5.43
2018-06-05T15:12:41.140Z,4.90
2018-06-05T15:15:10.069Z,5.80
2018-06-05T15:17:38.750Z,5.33
2018-06-05T15:20:07.524Z,5.93
2018-06-05T15:22:36.356Z,5.30
2018-06-05T15:25:05.028Z,5.17
2018-06-05T15:27:33.851Z,5.67
2018-06-05T15:30:02.545Z,6.42
2018-06-05T15:32:31.479Z,5.97
2018-06-05T15:35:00.162Z,6.10
2018-06-05T15:37:28.924Z,5.92
2018-06-05T15:39:57.604Z,5.90
2018-06-05T15:42:26.256Z,5.40
2018-06-05T15:44:55.189Z,5.57
2018-06-05T15:47:24.084Z,6.10
2018-06-05T15:49:52.785Z,6.40
2018-06-05T15:52:21.488Z,5.67
2018-06-05T15:54:50.979Z,6.30
2018-06-05T15:57:19.830Z,5.80
2018-06-05T15:59:48.465Z,5.70
2018-06-05T16:02:17.430Z,5.23
2018-06-05T16:04:46.125Z,5.80
2018-06-05T16:07:14.750Z,6.50
2018-06-05T16:09:43.459Z,7.50
2018-06-05T16:12:12.168Z,6.30
2018-06-05T16:14:40.761Z,6.37
2018-06-05T16:17:09.520Z,6.00
2018-06-05T16:19:38.198Z,6.90
2018-06-05T16:22:06.830Z,6.60
2018-06-05T16:24:35.904Z,7.40
2018-06-05T16:27:04.805Z,6.10
2018-06-05T16:29:34.164Z,7.07
2018-06-05T16:32:02.757Z,6.33
2018-06-05T16:34:31.579Z,7.63
2018-06-05T16:37:01.184Z,8.90
2018-06-05T16:39:29.864Z,8.17
2018-06-05T16:41:58.739Z,6.83
2018-06-05T16:44:27.413Z,7.40
2018-06-05T16:46:56.155Z,6.33
2018-06-05T16:49:25.000Z,6.73
2018-06-05T16:51:53.666Z,6.10
2018-06-05T16:54:22.559Z,6.23
2018-06-05T16:56:51.696Z,6.43
2018-06-05T16:59:20.374Z,6.60
2018-06-05T17:01:48.985Z,6.87
2018-06-05T17:04:17.944Z,7.93
2018-06-05T17:06:46.526Z,7.63
2018-06-05T17:09:15.350Z,8.57
2018-06-05T17:11:44.206Z,6.70
2018-06-05T17:14:12.984Z,7.40
2018-06-05T17:16:41.760Z,7.73
2018-06-05T17:20:13.554Z,7.80
2018-06-05T17:22:42.295Z,7.50
2018-06-05T17:25:11.259Z,8.40
2018-06-05T17:27:39.985Z,7.10
2018-06-05T17:30:09.075Z,8.17
2018-06-05T17:32:37.984Z,8.10
2018-06-05T17:35:06.701Z,8.07
2018-06-05T17:37:35.630Z,8.20
2018-06-05T17:40:05.109Z,7.83
2018-06-05T17:42:33.871Z,8.50
2018-06-05T17:45:03.474Z,8.37
2018-06-05T17:47:32.051Z,7.93
2018-06-05T17:50:00.675Z,7.60
2018-06-05T17:52:29.320Z,8.08
2018-06-05T17:54:57.955Z,7.47
2018-06-05T17:57:26.579Z,7.50
2018-06-05T17:59:55.291Z,8.10
2018-06-05T18:02:24.010Z,7.40
2018-06-05T18:04:52.651Z,7.60
2018-06-05T18:07:21.546Z,8.20
2018-06-05T18:09:50.336Z,7.73
2018-06-05T18:12:19.210Z,7.90
2018-06-05T18:14:48.206Z,7.80
2018-06-05T18:17:17.387Z,7.40
2018-06-05T18:19:46.914Z,13.03
2018-06-05T18:22:15.554Z,8.50
2018-06-05T18:24:44.401Z,8.20
2018-06-05T18:27:13.351Z,8.17
2018-06-05T18:29:42.737Z,8.23
2018-06-05T18:32:11.570Z,7.37
2018-06-05T18:34:40.542Z,7.90
2018-06-05T18:37:09.440Z,8.70
2018-06-05T18:39:39.265Z,8.27
2018-06-05T18:42:08.129Z,7.90
2018-06-05T18:44:36.951Z,7.77
2018-06-05T18:47:05.870Z,8.33
2018-06-05T18:49:34.621Z,8.10
2018-06-05T18:52:03.426Z,8.40
2018-06-05T18:54:32.095Z,8.00
2018-06-05T18:57:00.786Z,7.60
2018-06-05T18:59:29.575Z,7.87
2018-06-05T19:01:58.244Z,7.90
2018-06-05T19:04:27.286Z,8.57
2018-06-05T19:06:56.123Z,8.50
2018-06-05T19:09:24.999Z,7.90
2018-06-05T19:11:54.132Z,8.53
2018-06-05T19:16:51.484Z,7.30
2018-06-05T19:24:16.204Z,7.70
2018-06-05T19:26:45.633Z,8.93
2018-06-05T19:29:14.511Z,9.10
2018-06-05T19:36:39.699Z,24.05
2018-06-05T19:53:59.996Z,9.90
2018-06-05T19:59:09.066Z,9.35
2018-06-05T20:01:37.960Z,9.30
